Mills Orchard, California
Current Conditions -  °F | °C
As of 3:55 AM on Tuesday 21 Oct 2014 (Local Time) from KCIC Reporting Station
Scattered Clouds Scattered Clouds  
Wind Chill: 54°   Ceiling: Unl
Heat Index: 54°   Visibility: 10mi
Dew Point: 45°   Wind: 3mph
Humidity: 72%   Direction: 60°ENE
Pressure: 30.09"   Gusts: NA
Location:  39.7429°N, 122.012°W
Report Text: KCIC 211055Z AUTO 06003KT 10SM SCT065 12/07 A3009 RMK AO1
Loading
Personal Weather Stations






























Interactive Weather Map
Tropical Storm Tracking
New forecast layout! Learn more

10-Day Weather Forecast

Advertisements
Track Severe Weather on mobile